sensor_id;sensor_type;location;lat;lon;timestamp;pressure;altitude;pressure_sealevel;temperature;humidity
62152;BME280;48139;47.474;19.034;2023-07-20T03:46:35;99756.44;;;23.13;99.15
62152;BME280;48139;47.474;19.034;2023-07-20T03:49:38;99756.44;;;23.13;99.15
62152;BME280;48139;47.474;19.034;2023-07-20T03:52:40;99758.69;;;22.68;100.00
62152;BME280;48139;47.474;19.034;2023-07-20T03:55:51;99748.87;;;22.68;94.38
62152;BME280;48139;47.474;19.034;2023-07-20T03:58:53;99761.09;;;22.87;96.36
62152;BME280;48139;47.474;19.034;2023-07-20T04:01:56;99762.78;;;22.88;96.99
62152;BME280;48139;47.474;19.034;2023-07-20T04:04:59;99767.31;;;22.96;95.67
62152;BME280;48139;47.474;19.034;2023-07-20T04:08:01;99769.31;;;23.02;98.24
62152;BME280;48139;47.474;19.034;2023-07-20T04:11:04;99754.44;;;23.07;95.51
62152;BME280;48139;47.474;19.034;2023-07-20T04:14:06;99759.63;;;23.17;95.19
62152;BME280;48139;47.474;19.034;2023-07-20T04:17:09;99755.13;;;23.17;93.46
62152;BME280;48139;47.474;19.034;2023-07-20T04:20:15;99753.94;;;23.12;95.22
62152;BME280;48139;47.474;19.034;2023-07-20T04:23:18;99750.09;;;23.14;95.75
62152;BME280;48139;47.474;19.034;2023-07-20T04:26:20;99746.94;;;23.19;95.97
62152;BME280;48139;47.474;19.034;2023-07-20T04:29:24;99743.78;;;23.23;93.50
62152;BME280;48139;47.474;19.034;2023-07-20T04:32:26;99732.72;;;23.26;95.06
62152;BME280;48139;47.474;19.034;2023-07-20T04:35:52;99738.56;;;23.30;94.03
62152;BME280;48139;47.474;19.034;2023-07-20T04:38:56;99742.59;;;23.34;91.46
62152;BME280;48139;47.474;19.034;2023-07-20T04:41:59;99737.25;;;23.34;89.66
62152;BME280;48139;47.474;19.034;2023-07-20T04:45:02;99746.56;;;23.46;89.48
62152;BME280;48139;47.474;19.034;2023-07-20T04:48:09;99746.56;;;23.62;85.60
62152;BME280;48139;47.474;19.034;2023-07-20T04:51:12;99739.38;;;23.63;88.61
62152;BME280;48139;47.474;19.034;2023-07-20T04:54:15;99748.53;;;23.77;83.26
62152;BME280;48139;47.474;19.034;2023-07-20T04:57:19;99753.97;;;23.99;82.19
62152;BME280;48139;47.474;19.034;2023-07-20T05:00:22;99750.22;;;24.25;79.66
62152;BME280;48139;47.474;19.034;2023-07-20T05:03:25;99745.25;;;24.52;73.32
62152;BME280;48139;47.474;19.034;2023-07-20T05:06:28;99755.53;;;24.86;73.89
62152;BME280;48139;47.474;19.034;2023-07-20T05:09:31;99759.81;;;25.04;71.13
62152;BME280;48139;47.474;19.034;2023-07-20T05:12:34;99754.31;;;25.20;68.11
62152;BME280;48139;47.474;19.034;2023-07-20T05:15:38;99747.88;;;25.29;67.67
62152;BME280;48139;47.474;19.034;2023-07-20T05:18:45;99756.16;;;25.42;67.19
62152;BME280;48139;47.474;19.034;2023-07-20T05:21:47;99756.09;;;25.27;68.33
62152;BME280;48139;47.474;19.034;2023-07-20T05:24:50;99758.06;;;25.34;64.24
62152;BME280;48139;47.474;19.034;2023-07-20T05:27:53;99757.78;;;25.43;62.44
62152;BME280;48139;47.474;19.034;2023-07-20T05:30:57;99751.78;;;25.04;64.37
62152;BME280;48139;47.474;19.034;2023-07-20T05:34:02;99753.78;;;25.24;62.80
62152;BME280;48139;47.474;19.034;2023-07-20T05:37:04;99757.63;;;25.45;61.84
62152;BME280;48139;47.474;19.034;2023-07-20T05:40:08;99760.56;;;25.50;62.59
62152;BME280;48139;47.474;19.034;2023-07-20T05:43:11;99760.69;;;25.42;63.02
62152;BME280;48139;47.474;19.034;2023-07-20T05:46:14;99766.03;;;25.56;63.07
62152;BME280;48139;47.474;19.034;2023-07-20T05:49:16;99763.75;;;25.53;62.46
62152;BME280;48139;47.474;19.034;2023-07-20T05:52:19;99757.50;;;25.61;62.60
62152;BME280;48139;47.474;19.034;2023-07-20T05:55:22;99765.28;;;25.70;62.03
62152;BME280;48139;47.474;19.034;2023-07-20T05:58:24;99765.19;;;25.93;64.07
62152;BME280;48139;47.474;19.034;2023-07-20T06:01:27;99766.03;;;26.08;60.09
62152;BME280;48139;47.474;19.034;2023-07-20T06:04:31;99764.16;;;25.94;58.73
62152;BME280;48139;47.474;19.034;2023-07-20T06:07:33;99762.22;;;25.88;61.16
62152;BME280;48139;47.474;19.034;2023-07-20T06:10:36;99766.84;;;26.09;60.38
62152;BME280;48139;47.474;19.034;2023-07-20T06:13:38;99761.56;;;26.16;56.90
62152;BME280;48139;47.474;19.034;2023-07-20T06:16:41;99770.75;;;26.36;56.46
62152;BME280;48139;47.474;19.034;2023-07-20T06:19:43;99771.47;;;26.15;55.73
62152;BME280;48139;47.474;19.034;2023-07-20T06:22:47;99767.50;;;26.11;54.41
62152;BME280;48139;47.474;19.034;2023-07-20T06:26:00;99785.00;;;26.07;55.17
62152;BME280;48139;47.474;19.034;2023-07-20T06:29:02;99780.19;;;26.17;53.96
62152;BME280;48139;47.474;19.034;2023-07-20T06:32:05;99789.47;;;26.29;53.85
62152;BME280;48139;47.474;19.034;2023-07-20T06:35:09;99788.50;;;26.22;53.87
62152;BME280;48139;47.474;19.034;2023-07-20T06:38:11;99792.28;;;26.42;52.90
62152;BME280;48139;47.474;19.034;2023-07-20T06:41:18;99799.34;;;26.43;53.27
62152;BME280;48139;47.474;19.034;2023-07-20T06:44:24;99796.56;;;26.37;50.14
62152;BME280;48139;47.474;19.034;2023-07-20T06:47:27;99807.31;;;26.22;50.72
62152;BME280;48139;47.474;19.034;2023-07-20T06:50:29;99808.53;;;26.34;50.38
62152;BME280;48139;47.474;19.034;2023-07-20T06:53:33;99818.63;;;26.47;49.94
62152;BME280;48139;47.474;19.034;2023-07-20T06:56:36;99823.34;;;26.81;49.94
62152;BME280;48139;47.474;19.034;2023-07-20T06:59:39;99830.03;;;26.85;50.16
62152;BME280;48139;47.474;19.034;2023-07-20T07:02:43;99826.69;;;26.83;49.52
62152;BME280;48139;47.474;19.034;2023-07-20T07:05:49;99825.78;;;26.76;50.06
62152;BME280;48139;47.474;19.034;2023-07-20T07:08:53;99834.75;;;26.98;49.17
62152;BME280;48139;47.474;19.034;2023-07-20T07:11:56;99849.69;;;26.71;49.10
62152;BME280;48139;47.474;19.034;2023-07-20T07:14:58;99843.97;;;26.59;49.60
62152;BME280;48139;47.474;19.034;2023-07-20T07:18:01;99843.38;;;26.78;49.67
62152;BME280;48139;47.474;19.034;2023-07-20T07:21:05;99845.75;;;26.88;49.90
62152;BME280;48139;47.474;19.034;2023-07-20T07:24:08;99843.75;;;26.90;48.61
62152;BME280;48139;47.474;19.034;2023-07-20T07:27:12;99851.13;;;27.24;48.43
62152;BME280;48139;47.474;19.034;2023-07-20T07:30:14;99851.66;;;27.34;48.18
62152;BME280;48139;47.474;19.034;2023-07-20T07:33:17;99843.56;;;27.13;47.62
62152;BME280;48139;47.474;19.034;2023-07-20T07:36:19;99839.41;;;26.89;47.51
62152;BME280;48139;47.474;19.034;2023-07-20T07:39:23;99837.38;;;26.62;48.98
62152;BME280;48139;47.474;19.034;2023-07-20T07:42:29;99847.72;;;26.94;47.89
62152;BME280;48139;47.474;19.034;2023-07-20T07:45:34;99844.41;;;26.77;48.59
62152;BME280;48139;47.474;19.034;2023-07-20T07:48:38;99849.03;;;26.83;53.18
62152;BME280;48139;47.474;19.034;2023-07-20T07:51:41;99844.00;;;26.95;50.80
62152;BME280;48139;47.474;19.034;2023-07-20T07:54:44;99843.31;;;27.08;49.88
62152;BME280;48139;47.474;19.034;2023-07-20T07:57:46;99843.19;;;27.37;51.08
62152;BME280;48139;47.474;19.034;2023-07-20T08:00:50;99829.44;;;27.25;48.96
62152;BME280;48139;47.474;19.034;2023-07-20T08:03:52;99837.50;;;27.47;49.49
62152;BME280;48139;47.474;19.034;2023-07-20T08:06:55;99840.44;;;27.73;52.04
62152;BME280;48139;47.474;19.034;2023-07-20T08:09:58;99841.25;;;28.01;48.75
62152;BME280;48139;47.474;19.034;2023-07-20T08:13:03;99845.22;;;28.05;49.49
62152;BME280;48139;47.474;19.034;2023-07-20T08:16:06;99841.72;;;28.39;46.52
62152;BME280;48139;47.474;19.034;2023-07-20T08:19:09;99841.41;;;28.62;45.14
62152;BME280;48139;47.474;19.034;2023-07-20T08:22:12;99841.19;;;28.57;44.49
62152;BME280;48139;47.474;19.034;2023-07-20T08:25:15;99837.84;;;28.55;43.94
62152;BME280;48139;47.474;19.034;2023-07-20T08:28:18;99842.88;;;28.65;44.05
62152;BME280;48139;47.474;19.034;2023-07-20T08:31:21;99837.38;;;28.93;44.16
62152;BME280;48139;47.474;19.034;2023-07-20T08:34:26;99851.44;;;28.75;42.74
62152;BME280;48139;47.474;19.034;2023-07-20T08:37:33;99842.69;;;28.66;43.36
62152;BME280;48139;47.474;19.034;2023-07-20T08:40:46;99849.37;;;28.77;42.67
62152;BME280;48139;47.474;19.034;2023-07-20T08:43:49;99844.28;;;29.08;41.57
62152;BME280;48139;47.474;19.034;2023-07-20T08:46:53;99861.63;;;28.86;42.01
62152;BME280;48139;47.474;19.034;2023-07-20T08:49:57;99856.69;;;28.90;41.72
62152;BME280;48139;47.474;19.034;2023-07-20T08:53:00;99859.91;;;28.72;42.53
62152;BME280;48139;47.474;19.034;2023-07-20T08:56:04;99858.38;;;27.94;43.87
62152;BME280;48139;47.474;19.034;2023-07-20T08:59:16;99874.31;;;27.61;45.13
62152;BME280;48139;47.474;19.034;2023-07-20T09:02:20;99869.44;;;27.14;45.83
62152;BME280;48139;47.474;19.034;2023-07-20T09:05:26;99871.69;;;27.10;45.98
62152;BME280;48139;47.474;19.034;2023-07-20T09:08:29;99872.09;;;26.93;46.03
62152;BME280;48139;47.474;19.034;2023-07-20T09:11:32;99877.38;;;26.86;44.56
62152;BME280;48139;47.474;19.034;2023-07-20T09:14:37;99886.66;;;26.98;46.50
62152;BME280;48139;47.474;19.034;2023-07-20T09:17:46;99890.81;;;27.79;42.03
62152;BME280;48139;47.474;19.034;2023-07-20T09:20:49;99891.56;;;28.57;40.63
62152;BME280;48139;47.474;19.034;2023-07-20T09:23:56;99892.41;;;29.05;39.59
62152;BME280;48139;47.474;19.034;2023-07-20T09:27:01;99895.69;;;29.54;38.50
62152;BME280;48139;47.474;19.034;2023-07-20T09:30:06;99891.50;;;29.39;38.56
62152;BME280;48139;47.474;19.034;2023-07-20T09:33:18;99895.94;;;29.05;39.17
62152;BME280;48139;47.474;19.034;2023-07-20T09:36:26;99887.00;;;28.92;39.54
62152;BME280;48139;47.474;19.034;2023-07-20T09:39:32;99887.13;;;29.44;39.60
62152;BME280;48139;47.474;19.034;2023-07-20T09:42:35;99895.53;;;29.08;40.18
62152;BME280;48139;47.474;19.034;2023-07-20T09:45:41;99890.34;;;29.07;40.09
62152;BME280;48139;47.474;19.034;2023-07-20T09:48:53;99878.84;;;29.39;43.43
62152;BME280;48139;47.474;19.034;2023-07-20T09:51:59;99895.84;;;29.33;39.82
62152;BME280;48139;47.474;19.034;2023-07-20T09:55:08;99884.44;;;29.44;41.98
62152;BME280;48139;47.474;19.034;2023-07-20T09:58:12;99869.50;;;29.68;41.88
62152;BME280;48139;47.474;19.034;2023-07-20T10:01:18;99883.97;;;29.21;39.94
62152;BME280;48139;47.474;19.034;2023-07-20T10:04:26;99883.28;;;28.58;39.72
62152;BME280;48139;47.474;19.034;2023-07-20T10:07:31;99884.91;;;28.94;40.09
62152;BME280;48139;47.474;19.034;2023-07-20T10:10:36;99901.56;;;29.10;39.15
62152;BME280;48139;47.474;19.034;2023-07-20T10:13:40;99903.59;;;29.02;40.29
62152;BME280;48139;47.474;19.034;2023-07-20T10:16:50;99899.72;;;29.24;39.42
62152;BME280;48139;47.474;19.034;2023-07-20T10:19:56;99908.94;;;28.88;40.05
62152;BME280;48139;47.474;19.034;2023-07-20T10:22:59;99903.00;;;28.65;41.15
62152;BME280;48139;47.474;19.034;2023-07-20T10:26:03;99906.47;;;28.53;41.76
62152;BME280;48139;47.474;19.034;2023-07-20T10:29:06;99909.41;;;28.58;42.02
62152;BME280;48139;47.474;19.034;2023-07-20T10:32:09;99907.38;;;28.66;42.70
62152;BME280;48139;47.474;19.034;2023-07-20T10:35:15;99895.56;;;29.15;41.08
62152;BME280;48139;47.474;19.034;2023-07-20T10:38:18;99890.50;;;29.59;41.93
62152;BME280;48139;47.474;19.034;2023-07-20T10:41:21;99905.00;;;29.45;42.98
62152;BME280;48139;47.474;19.034;2023-07-20T10:44:26;99904.16;;;28.84;41.77
62152;BME280;48139;47.474;19.034;2023-07-20T10:47:45;99901.97;;;29.14;41.62
62152;BME280;48139;47.474;19.034;2023-07-20T10:51:26;99889.84;;;28.83;41.62
62152;BME280;48139;47.474;19.034;2023-07-20T10:57:32;99893.03;;;29.07;41.70
62152;BME280;48139;47.474;19.034;2023-07-20T11:00:35;99895.78;;;28.72;41.74
62152;BME280;48139;47.474;19.034;2023-07-20T11:03:38;99901.09;;;28.25;42.64
62152;BME280;48139;47.474;19.034;2023-07-20T11:06:43;99899.06;;;28.68;42.54
62152;BME280;48139;47.474;19.034;2023-07-20T11:09:46;99900.94;;;28.67;40.12
62152;BME280;48139;47.474;19.034;2023-07-20T11:13:17;99898.31;;;28.74;39.49
62152;BME280;48139;47.474;19.034;2023-07-20T11:19:41;99889.53;;;29.13;39.11
62152;BME280;48139;47.474;19.034;2023-07-20T11:22:46;99888.25;;;28.61;39.42
62152;BME280;48139;47.474;19.034;2023-07-20T11:25:51;99894.06;;;28.24;40.27
62152;BME280;48139;47.474;19.034;2023-07-20T11:28:54;99889.81;;;28.42;40.19
62152;BME280;48139;47.474;19.034;2023-07-20T11:31:58;99874.19;;;28.66;39.61
62152;BME280;48139;47.474;19.034;2023-07-20T11:35:12;99880.16;;;29.02;38.80
62152;BME280;48139;47.474;19.034;2023-07-20T11:38:15;99874.75;;;28.96;39.31
62152;BME280;48139;47.474;19.034;2023-07-20T11:41:18;99884.13;;;29.13;38.53
62152;BME280;48139;47.474;19.034;2023-07-20T11:44:23;99886.50;;;29.42;38.76
62152;BME280;48139;47.474;19.034;2023-07-20T11:47:29;99878.41;;;29.42;38.57
62152;BME280;48139;47.474;19.034;2023-07-20T11:50:38;99889.03;;;29.77;37.62
62152;BME280;48139;47.474;19.034;2023-07-20T11:53:43;99890.06;;;29.62;37.36
62152;BME280;48139;47.474;19.034;2023-07-20T11:56:48;99882.16;;;29.74;37.35
62152;BME280;48139;47.474;19.034;2023-07-20T11:59:54;99881.44;;;29.19;37.81
62152;BME280;48139;47.474;19.034;2023-07-20T12:03:00;99869.50;;;29.42;37.44
62152;BME280;48139;47.474;19.034;2023-07-20T12:06:10;99873.25;;;29.47;36.32
62152;BME280;48139;47.474;19.034;2023-07-20T12:09:14;99875.69;;;29.42;36.27
62152;BME280;48139;47.474;19.034;2023-07-20T12:12:18;99855.38;;;29.46;37.13
62152;BME280;48139;47.474;19.034;2023-07-20T12:15:23;99861.63;;;29.60;36.00
62152;BME280;48139;47.474;19.034;2023-07-20T12:18:34;99850.63;;;29.94;36.38
62152;BME280;48139;47.474;19.034;2023-07-20T12:21:39;99855.41;;;29.66;35.23
62152;BME280;48139;47.474;19.034;2023-07-20T12:24:45;99864.53;;;29.85;35.21
62152;BME280;48139;47.474;19.034;2023-07-20T12:27:48;99870.53;;;29.80;35.29
62152;BME280;48139;47.474;19.034;2023-07-20T12:30:51;99861.19;;;29.56;36.22
62152;BME280;48139;47.474;19.034;2023-07-20T12:33:59;99864.72;;;29.83;36.07
62152;BME280;48139;47.474;19.034;2023-07-20T12:37:03;99866.78;;;29.88;36.18
62152;BME280;48139;47.474;19.034;2023-07-20T12:40:06;99864.09;;;29.81;35.08
62152;BME280;48139;47.474;19.034;2023-07-20T12:43:13;99864.94;;;29.62;34.93
62152;BME280;48139;47.474;19.034;2023-07-20T12:46:15;99856.63;;;29.63;35.07
62152;BME280;48139;47.474;19.034;2023-07-20T12:49:18;99854.97;;;29.82;34.37
62152;BME280;48139;47.474;19.034;2023-07-20T12:52:21;99848.72;;;29.88;34.26
62152;BME280;48139;47.474;19.034;2023-07-20T12:55:24;99848.56;;;29.96;34.30
62152;BME280;48139;47.474;19.034;2023-07-20T12:58:26;99853.69;;;30.24;34.37
62152;BME280;48139;47.474;19.034;2023-07-20T13:01:30;99858.66;;;30.27;34.56
62152;BME280;48139;47.474;19.034;2023-07-20T13:04:32;99846.41;;;30.25;34.35
62152;BME280;48139;47.474;19.034;2023-07-20T13:07:36;99847.06;;;30.07;33.05
62152;BME280;48139;47.474;19.034;2023-07-20T13:10:43;99844.16;;;30.09;33.28
62152;BME280;48139;47.474;19.034;2023-07-20T13:13:45;99853.09;;;30.02;33.78
62152;BME280;48139;47.474;19.034;2023-07-20T13:16:48;99856.63;;;30.10;33.42
62152;BME280;48139;47.474;19.034;2023-07-20T13:19:50;99855.59;;;29.84;32.71
62152;BME280;48139;47.474;19.034;2023-07-20T13:22:56;99859.53;;;29.88;33.45
62152;BME280;48139;47.474;19.034;2023-07-20T13:25:58;99853.53;;;29.93;33.42
62152;BME280;48139;47.474;19.034;2023-07-20T13:29:01;99847.06;;;30.07;33.26
62152;BME280;48139;47.474;19.034;2023-07-20T13:32:04;99845.19;;;29.88;33.47
62152;BME280;48139;47.474;19.034;2023-07-20T13:35:09;99843.97;;;29.84;33.39
62152;BME280;48139;47.474;19.034;2023-07-20T13:38:12;99845.41;;;29.86;33.81
62152;BME280;48139;47.474;19.034;2023-07-20T13:41:15;99840.22;;;29.85;33.64
62152;BME280;48139;47.474;19.034;2023-07-20T13:44:20;99845.84;;;30.03;33.75
62152;BME280;48139;47.474;19.034;2023-07-20T13:47:24;99831.69;;;29.88;33.89
62152;BME280;48139;47.474;19.034;2023-07-20T13:50:26;99834.41;;;29.81;34.29
62152;BME280;48139;47.474;19.034;2023-07-20T13:53:41;99830.66;;;29.76;33.55
62152;BME280;48139;47.474;19.034;2023-07-20T13:56:47;99827.75;;;29.57;33.33
62152;BME280;48139;47.474;19.034;2023-07-20T13:59:50;99834.63;;;29.66;33.35
62152;BME280;48139;47.474;19.034;2023-07-20T14:02:53;99836.50;;;29.59;33.23
62152;BME280;48139;47.474;19.034;2023-07-20T14:05:59;99834.00;;;29.78;33.25
62152;BME280;48139;47.474;19.034;2023-07-20T14:09:04;99823.81;;;29.73;33.29
62152;BME280;48139;47.474;19.034;2023-07-20T14:12:07;99834.22;;;29.96;33.20
62152;BME280;48139;47.474;19.034;2023-07-20T14:15:10;99834.81;;;29.85;32.88
62152;BME280;48139;47.474;19.034;2023-07-20T14:18:13;99836.91;;;29.76;33.30
62152;BME280;48139;47.474;19.034;2023-07-20T14:21:20;99825.87;;;29.91;33.33
62152;BME280;48139;47.474;19.034;2023-07-20T14:24:23;99826.91;;;29.90;32.73
62152;BME280;48139;47.474;19.034;2023-07-20T14:27:25;99830.84;;;29.87;32.56
62152;BME280;48139;47.474;19.034;2023-07-20T14:30:28;99832.31;;;29.90;32.76
62152;BME280;48139;47.474;19.034;2023-07-20T14:33:31;99826.09;;;29.76;33.38
62152;BME280;48139;47.474;19.034;2023-07-20T14:36:33;99839.59;;;29.70;33.71
62152;BME280;48139;47.474;19.034;2023-07-20T14:39:36;99830.47;;;29.77;33.18
62152;BME280;48139;47.474;19.034;2023-07-20T14:42:39;99833.37;;;29.76;33.75
62152;BME280;48139;47.474;19.034;2023-07-20T14:45:41;99831.88;;;29.86;33.33
62152;BME280;48139;47.474;19.034;2023-07-20T14:48:44;99833.56;;;29.87;33.61
62152;BME280;48139;47.474;19.034;2023-07-20T14:51:46;99833.75;;;30.12;32.94
62152;BME280;48139;47.474;19.034;2023-07-20T14:54:49;99838.91;;;30.27;32.47
62152;BME280;48139;47.474;19.034;2023-07-20T14:57:51;99839.78;;;30.21;32.97
62152;BME280;48139;47.474;19.034;2023-07-20T15:00:54;99826.91;;;29.90;33.36
62152;BME280;48139;47.474;19.034;2023-07-20T15:03:57;99838.75;;;29.89;33.44
62152;BME280;48139;47.474;19.034;2023-07-20T15:07:02;99833.16;;;29.84;33.87
62152;BME280;48139;47.474;19.034;2023-07-20T15:10:05;99831.28;;;29.91;33.61
62152;BME280;48139;47.474;19.034;2023-07-20T15:13:08;99833.78;;;29.92;33.08
62152;BME280;48139;47.474;19.034;2023-07-20T15:16:11;99833.59;;;29.94;33.33
